sensor_id;sensor_type;location;lat;lon;timestamp;temperature;humidity
22966;DHT22;11649;48.090;9.754;2023-08-20T00:01:09;20.70;99.90
22966;DHT22;11649;48.090;9.754;2023-08-20T00:03:40;20.70;99.90
22966;DHT22;11649;48.090;9.754;2023-08-20T00:06:07;20.60;99.90
22966;DHT22;11649;48.090;9.754;2023-08-20T00:08:34;20.60;99.90
22966;DHT22;11649;48.090;9.754;2023-08-20T00:11:01;20.60;99.90
22966;DHT22;11649;48.090;9.754;2023-08-20T00:13:29;20.60;99.90
22966;DHT22;11649;48.090;9.754;2023-08-20T00:15:56;20.70;99.90
22966;DHT22;11649;48.090;9.754;2023-08-20T00:18:23;20.60;99.90
22966;DHT22;11649;48.090;9.754;2023-08-20T00:20:50;20.60;99.90
22966;DHT22;11649;48.090;9.754;2023-08-20T00:23:17;20.60;99.90
22966;DHT22;11649;48.090;9.754;2023-08-20T00:25:44;20.60;99.90
22966;DHT22;11649;48.090;9.754;2023-08-20T00:28:11;20.60;99.90
22966;DHT22;11649;48.090;9.754;2023-08-20T00:30:38;20.50;99.90
22966;DHT22;11649;48.090;9.754;2023-08-20T00:33:05;20.50;99.90
22966;DHT22;11649;48.090;9.754;2023-08-20T00:35:32;20.40;99.90
22966;DHT22;11649;48.090;9.754;2023-08-20T00:37:59;20.30;99.90
22966;DHT22;11649;48.090;9.754;2023-08-20T00:40:26;20.30;99.90
22966;DHT22;11649;48.090;9.754;2023-08-20T00:42:53;20.40;99.90
22966;DHT22;11649;48.090;9.754;2023-08-20T00:45:19;20.40;99.90
22966;DHT22;11649;48.090;9.754;2023-08-20T00:47:46;20.30;99.90
22966;DHT22;11649;48.090;9.754;2023-08-20T00:50:14;20.30;99.90
22966;DHT22;11649;48.090;9.754;2023-08-20T00:52:41;20.20;99.90
22966;DHT22;11649;48.090;9.754;2023-08-20T00:55:09;20.20;99.90
22966;DHT22;11649;48.090;9.754;2023-08-20T00:57:37;20.20;99.90
22966;DHT22;11649;48.090;9.754;2023-08-20T01:00:05;20.10;99.90
22966;DHT22;11649;48.090;9.754;2023-08-20T01:02:38;20.10;99.90
22966;DHT22;11649;48.090;9.754;2023-08-20T01:05:07;20.10;99.90
22966;DHT22;11649;48.090;9.754;2023-08-20T01:10:13;19.90;99.90
22966;DHT22;11649;48.090;9.754;2023-08-20T01:12:45;19.80;99.90
22966;DHT22;11649;48.090;9.754;2023-08-20T01:15:12;19.80;99.90
22966;DHT22;11649;48.090;9.754;2023-08-20T01:17:43;19.70;99.90
22966;DHT22;11649;48.090;9.754;2023-08-20T01:20:13;19.80;99.90
22966;DHT22;11649;48.090;9.754;2023-08-20T01:30:36;19.90;99.90
22966;DHT22;11649;48.090;9.754;2023-08-20T01:33:04;19.80;99.90
22966;DHT22;11649;48.090;9.754;2023-08-20T01:35:32;19.80;99.90
22966;DHT22;11649;48.090;9.754;2023-08-20T01:37:58;19.70;99.90
22966;DHT22;11649;48.090;9.754;2023-08-20T01:40:25;19.60;99.90
22966;DHT22;11649;48.090;9.754;2023-08-20T01:42:52;19.50;99.90
22966;DHT22;11649;48.090;9.754;2023-08-20T01:45:19;19.50;99.90
22966;DHT22;11649;48.090;9.754;2023-08-20T01:47:46;19.60;99.90
22966;DHT22;11649;48.090;9.754;2023-08-20T01:50:12;19.60;99.90
22966;DHT22;11649;48.090;9.754;2023-08-20T01:52:39;19.50;99.90
22966;DHT22;11649;48.090;9.754;2023-08-20T01:55:06;19.50;99.90
22966;DHT22;11649;48.090;9.754;2023-08-20T01:57:33;19.50;99.90
22966;DHT22;11649;48.090;9.754;2023-08-20T02:00:00;19.40;99.90
22966;DHT22;11649;48.090;9.754;2023-08-20T02:02:27;19.40;99.90
22966;DHT22;11649;48.090;9.754;2023-08-20T02:04:54;19.40;99.90
22966;DHT22;11649;48.090;9.754;2023-08-20T02:07:21;19.50;99.90
22966;DHT22;11649;48.090;9.754;2023-08-20T02:09:48;19.50;99.90
22966;DHT22;11649;48.090;9.754;2023-08-20T02:12:15;19.50;99.90
22966;DHT22;11649;48.090;9.754;2023-08-20T02:14:42;19.50;99.90
22966;DHT22;11649;48.090;9.754;2023-08-20T02:17:08;19.50;99.90
22966;DHT22;11649;48.090;9.754;2023-08-20T02:19:35;19.40;99.90
22966;DHT22;11649;48.090;9.754;2023-08-20T02:22:02;19.30;99.90
22966;DHT22;11649;48.090;9.754;2023-08-20T02:24:29;19.30;99.90
22966;DHT22;11649;48.090;9.754;2023-08-20T02:26:56;19.30;99.90
22966;DHT22;11649;48.090;9.754;2023-08-20T02:29:23;19.30;99.90
22966;DHT22;11649;48.090;9.754;2023-08-20T02:31:50;19.20;99.90
22966;DHT22;11649;48.090;9.754;2023-08-20T02:34:16;19.10;99.90
22966;DHT22;11649;48.090;9.754;2023-08-20T02:36:43;19.10;99.90
22966;DHT22;11649;48.090;9.754;2023-08-20T02:39:10;19.10;99.90
22966;DHT22;11649;48.090;9.754;2023-08-20T02:41:37;19.00;99.90
22966;DHT22;11649;48.090;9.754;2023-08-20T02:44:04;19.00;99.90
22966;DHT22;11649;48.090;9.754;2023-08-20T02:46:31;18.90;99.90
22966;DHT22;11649;48.090;9.754;2023-08-20T02:48:57;18.90;99.90
22966;DHT22;11649;48.090;9.754;2023-08-20T02:51:24;18.90;99.90
22966;DHT22;11649;48.090;9.754;2023-08-20T02:53:51;18.90;99.90
22966;DHT22;11649;48.090;9.754;2023-08-20T02:56:18;18.90;99.90
22966;DHT22;11649;48.090;9.754;2023-08-20T02:58:45;18.80;99.90
22966;DHT22;11649;48.090;9.754;2023-08-20T03:01:22;18.80;99.90
22966;DHT22;11649;48.090;9.754;2023-08-20T03:03:49;18.80;99.90
22966;DHT22;11649;48.090;9.754;2023-08-20T03:06:16;18.70;99.90
22966;DHT22;11649;48.090;9.754;2023-08-20T03:08:43;18.80;99.90
22966;DHT22;11649;48.090;9.754;2023-08-20T03:11:10;18.60;99.90
22966;DHT22;11649;48.090;9.754;2023-08-20T03:13:37;18.60;99.90
22966;DHT22;11649;48.090;9.754;2023-08-20T03:16:03;18.50;99.90
22966;DHT22;11649;48.090;9.754;2023-08-20T03:18:30;18.50;99.90
22966;DHT22;11649;48.090;9.754;2023-08-20T03:20:57;18.60;99.90
22966;DHT22;11649;48.090;9.754;2023-08-20T03:23:24;18.60;99.90
22966;DHT22;11649;48.090;9.754;2023-08-20T03:25:51;18.70;99.90
22966;DHT22;11649;48.090;9.754;2023-08-20T03:28:18;18.60;99.90
22966;DHT22;11649;48.090;9.754;2023-08-20T03:30:46;18.60;99.90
22966;DHT22;11649;48.090;9.754;2023-08-20T03:33:13;18.60;99.90
22966;DHT22;11649;48.090;9.754;2023-08-20T03:35:39;18.60;99.90
22966;DHT22;11649;48.090;9.754;2023-08-20T03:38:06;18.60;99.90
22966;DHT22;11649;48.090;9.754;2023-08-20T03:40:33;18.50;99.90
22966;DHT22;11649;48.090;9.754;2023-08-20T03:43:00;18.40;99.90
22966;DHT22;11649;48.090;9.754;2023-08-20T03:45:27;18.50;99.90
22966;DHT22;11649;48.090;9.754;2023-08-20T03:47:54;18.40;99.90
22966;DHT22;11649;48.090;9.754;2023-08-20T03:50:21;18.40;99.90
22966;DHT22;11649;48.090;9.754;2023-08-20T03:52:48;18.40;99.90
22966;DHT22;11649;48.090;9.754;2023-08-20T03:55:15;18.50;99.90
22966;DHT22;11649;48.090;9.754;2023-08-20T03:57:42;18.50;99.90
22966;DHT22;11649;48.090;9.754;2023-08-20T04:00:09;18.50;99.90
22966;DHT22;11649;48.090;9.754;2023-08-20T04:02:36;18.60;99.90
22966;DHT22;11649;48.090;9.754;2023-08-20T04:05:03;18.60;99.90
22966;DHT22;11649;48.090;9.754;2023-08-20T04:07:30;18.70;99.90
22966;DHT22;11649;48.090;9.754;2023-08-20T04:09:57;18.80;99.90
22966;DHT22;11649;48.090;9.754;2023-08-20T04:12:24;18.80;99.90
22966;DHT22;11649;48.090;9.754;2023-08-20T04:14:51;18.80;99.90
22966;DHT22;11649;48.090;9.754;2023-08-20T04:17:17;18.90;99.90
22966;DHT22;11649;48.090;9.754;2023-08-20T04:19:44;18.80;99.90
22966;DHT22;11649;48.090;9.754;2023-08-20T04:22:11;18.70;99.90
22966;DHT22;11649;48.090;9.754;2023-08-20T04:24:38;18.80;99.90
22966;DHT22;11649;48.090;9.754;2023-08-20T04:27:05;18.70;99.90
22966;DHT22;11649;48.090;9.754;2023-08-20T04:29:32;18.60;99.90
22966;DHT22;11649;48.090;9.754;2023-08-20T04:31:59;18.60;99.90
22966;DHT22;11649;48.090;9.754;2023-08-20T04:34:26;18.60;99.90
22966;DHT22;11649;48.090;9.754;2023-08-20T04:36:53;18.70;99.90
22966;DHT22;11649;48.090;9.754;2023-08-20T04:39:20;18.60;99.90
22966;DHT22;11649;48.090;9.754;2023-08-20T04:41:46;18.60;99.90
22966;DHT22;11649;48.090;9.754;2023-08-20T04:44:13;18.60;99.90
22966;DHT22;11649;48.090;9.754;2023-08-20T04:46:40;18.60;99.90
22966;DHT22;11649;48.090;9.754;2023-08-20T04:49:07;18.50;99.90
22966;DHT22;11649;48.090;9.754;2023-08-20T04:51:34;18.50;99.90
22966;DHT22;11649;48.090;9.754;2023-08-20T04:54:00;18.40;99.90
22966;DHT22;11649;48.090;9.754;2023-08-20T04:56:27;18.50;99.90
22966;DHT22;11649;48.090;9.754;2023-08-20T04:58:54;18.50;99.90
22966;DHT22;11649;48.090;9.754;2023-08-20T05:01:20;18.60;99.90
22966;DHT22;11649;48.090;9.754;2023-08-20T05:03:47;18.60;99.90
22966;DHT22;11649;48.090;9.754;2023-08-20T05:06:14;18.60;99.90
22966;DHT22;11649;48.090;9.754;2023-08-20T05:08:43;18.60;99.90
22966;DHT22;11649;48.090;9.754;2023-08-20T05:11:09;18.60;99.90
22966;DHT22;11649;48.090;9.754;2023-08-20T05:13:36;18.70;99.90
22966;DHT22;11649;48.090;9.754;2023-08-20T05:16:03;18.60;99.90
22966;DHT22;11649;48.090;9.754;2023-08-20T05:18:30;18.60;99.90
22966;DHT22;11649;48.090;9.754;2023-08-20T05:20:57;18.50;99.90
22966;DHT22;11649;48.090;9.754;2023-08-20T05:23:23;18.60;99.90
22966;DHT22;11649;48.090;9.754;2023-08-20T05:25:50;18.50;99.90
22966;DHT22;11649;48.090;9.754;2023-08-20T05:28:17;18.60;99.90
22966;DHT22;11649;48.090;9.754;2023-08-20T05:30:44;18.50;99.90
22966;DHT22;11649;48.090;9.754;2023-08-20T05:33:10;18.50;99.90
22966;DHT22;11649;48.090;9.754;2023-08-20T05:35:37;18.50;99.90
22966;DHT22;11649;48.090;9.754;2023-08-20T05:38:05;18.70;99.90
22966;DHT22;11649;48.090;9.754;2023-08-20T05:40:32;18.80;99.90
22966;DHT22;11649;48.090;9.754;2023-08-20T05:42:59;19.00;99.90
22966;DHT22;11649;48.090;9.754;2023-08-20T05:45:25;19.10;99.90
22966;DHT22;11649;48.090;9.754;2023-08-20T05:47:52;19.20;99.90
22966;DHT22;11649;48.090;9.754;2023-08-20T05:50:19;19.30;99.90
22966;DHT22;11649;48.090;9.754;2023-08-20T05:52:46;19.40;99.90
22966;DHT22;11649;48.090;9.754;2023-08-20T05:55:13;19.60;99.90
22966;DHT22;11649;48.090;9.754;2023-08-20T05:57:39;19.60;99.90
22966;DHT22;11649;48.090;9.754;2023-08-20T06:00:08;19.40;99.90
22966;DHT22;11649;48.090;9.754;2023-08-20T06:02:35;19.30;99.90
22966;DHT22;11649;48.090;9.754;2023-08-20T06:05:02;19.40;99.90
22966;DHT22;11649;48.090;9.754;2023-08-20T06:07:31;19.60;99.90
22966;DHT22;11649;48.090;9.754;2023-08-20T06:09:58;19.50;99.90
22966;DHT22;11649;48.090;9.754;2023-08-20T06:12:25;19.60;99.90
22966;DHT22;11649;48.090;9.754;2023-08-20T06:14:51;19.70;99.90
22966;DHT22;11649;48.090;9.754;2023-08-20T06:17:19;19.80;99.90
22966;DHT22;11649;48.090;9.754;2023-08-20T06:19:46;19.80;99.90
22966;DHT22;11649;48.090;9.754;2023-08-20T06:22:16;20.00;99.90
22966;DHT22;11649;48.090;9.754;2023-08-20T06:24:43;20.30;99.90
22966;DHT22;11649;48.090;9.754;2023-08-20T06:27:13;20.50;99.90
22966;DHT22;11649;48.090;9.754;2023-08-20T06:29:40;20.60;99.90
22966;DHT22;11649;48.090;9.754;2023-08-20T06:32:06;20.70;99.90
22966;DHT22;11649;48.090;9.754;2023-08-20T06:34:55;20.80;99.90
22966;DHT22;11649;48.090;9.754;2023-08-20T06:37:38;20.90;99.90
22966;DHT22;11649;48.090;9.754;2023-08-20T06:40:55;21.10;99.90
22966;DHT22;11649;48.090;9.754;2023-08-20T06:43:36;20.90;99.90
22966;DHT22;11649;48.090;9.754;2023-08-20T06:46:27;21.40;99.90
22966;DHT22;11649;48.090;9.754;2023-08-20T06:49:27;21.50;99.90
22966;DHT22;11649;48.090;9.754;2023-08-20T06:52:29;21.60;99.90
22966;DHT22;11649;48.090;9.754;2023-08-20T06:58:23;21.70;99.90
22966;DHT22;11649;48.090;9.754;2023-08-20T07:00:56;21.70;99.90
22966;DHT22;11649;48.090;9.754;2023-08-20T07:03:22;21.80;99.90
22966;DHT22;11649;48.090;9.754;2023-08-20T07:05:49;22.00;99.90
22966;DHT22;11649;48.090;9.754;2023-08-20T07:08:16;22.20;99.90
22966;DHT22;11649;48.090;9.754;2023-08-20T07:10:43;22.30;99.90
22966;DHT22;11649;48.090;9.754;2023-08-20T07:13:10;22.40;99.90
22966;DHT22;11649;48.090;9.754;2023-08-20T07:15:36;22.60;99.90
22966;DHT22;11649;48.090;9.754;2023-08-20T07:18:03;22.70;99.90
22966;DHT22;11649;48.090;9.754;2023-08-20T07:20:30;22.80;99.90
22966;DHT22;11649;48.090;9.754;2023-08-20T07:22:58;22.80;99.90
22966;DHT22;11649;48.090;9.754;2023-08-20T07:25:25;23.00;99.90
22966;DHT22;11649;48.090;9.754;2023-08-20T07:27:52;23.10;99.90
22966;DHT22;11649;48.090;9.754;2023-08-20T07:30:19;23.20;99.90
22966;DHT22;11649;48.090;9.754;2023-08-20T07:32:45;23.30;99.90
22966;DHT22;11649;48.090;9.754;2023-08-20T07:35:12;23.40;99.90
22966;DHT22;11649;48.090;9.754;2023-08-20T07:38:05;23.40;99.90
22966;DHT22;11649;48.090;9.754;2023-08-20T07:41:12;23.50;99.90
22966;DHT22;11649;48.090;9.754;2023-08-20T07:47:51;23.60;99.90
22966;DHT22;11649;48.090;9.754;2023-08-20T07:50:59;23.70;99.90
22966;DHT22;11649;48.090;9.754;2023-08-20T07:54:06;23.80;99.90
22966;DHT22;11649;48.090;9.754;2023-08-20T07:57:19;23.80;99.90
22966;DHT22;11649;48.090;9.754;2023-08-20T07:59:50;23.80;99.90
22966;DHT22;11649;48.090;9.754;2023-08-20T08:05:14;24.50;99.90
22966;DHT22;11649;48.090;9.754;2023-08-20T08:07:47;24.20;99.90
22966;DHT22;11649;48.090;9.754;2023-08-20T08:10:22;24.30;99.90
22966;DHT22;11649;48.090;9.754;2023-08-20T08:12:49;24.20;99.90
22966;DHT22;11649;48.090;9.754;2023-08-20T08:15:16;24.20;99.90
22966;DHT22;11649;48.090;9.754;2023-08-20T08:17:43;24.40;99.90
22966;DHT22;11649;48.090;9.754;2023-08-20T08:20:10;24.40;99.90
22966;DHT22;11649;48.090;9.754;2023-08-20T08:22:37;24.30;99.90
22966;DHT22;11649;48.090;9.754;2023-08-20T08:25:04;24.50;99.90
22966;DHT22;11649;48.090;9.754;2023-08-20T08:27:31;24.60;99.90
22966;DHT22;11649;48.090;9.754;2023-08-20T08:30:06;24.60;99.90
22966;DHT22;11649;48.090;9.754;2023-08-20T08:32:34;24.70;99.90
22966;DHT22;11649;48.090;9.754;2023-08-20T08:35:00;24.60;99.90
22966;DHT22;11649;48.090;9.754;2023-08-20T08:37:27;24.60;99.90
22966;DHT22;11649;48.090;9.754;2023-08-20T08:39:54;24.60;99.90
22966;DHT22;11649;48.090;9.754;2023-08-20T08:42:22;24.60;99.90
22966;DHT22;11649;48.090;9.754;2023-08-20T08:44:50;24.80;99.90
22966;DHT22;11649;48.090;9.754;2023-08-20T08:47:18;24.80;99.90
22966;DHT22;11649;48.090;9.754;2023-08-20T08:49:46;24.80;99.90
22966;DHT22;11649;48.090;9.754;2023-08-20T08:52:14;24.80;99.90
22966;DHT22;11649;48.090;9.754;2023-08-20T08:54:42;24.90;99.90
22966;DHT22;11649;48.090;9.754;2023-08-20T08:57:08;25.00;99.90
22966;DHT22;11649;48.090;9.754;2023-08-20T08:59:35;25.20;99.90
22966;DHT22;11649;48.090;9.754;2023-08-20T09:02:08;25.30;99.90
22966;DHT22;11649;48.090;9.754;2023-08-20T09:04:40;25.40;99.90
22966;DHT22;11649;48.090;9.754;2023-08-20T09:07:14;25.50;99.90
22966;DHT22;11649;48.090;9.754;2023-08-20T09:09:45;25.50;99.90
22966;DHT22;11649;48.090;9.754;2023-08-20T09:12:14;25.50;99.90
22966;DHT22;11649;48.090;9.754;2023-08-20T09:14:56;25.60;99.90
22966;DHT22;11649;48.090;9.754;2023-08-20T09:17:44;25.60;99.90
22966;DHT22;11649;48.090;9.754;2023-08-20T09:20:11;25.70;99.90
22966;DHT22;11649;48.090;9.754;2023-08-20T09:22:38;25.80;99.90
22966;DHT22;11649;48.090;9.754;2023-08-20T09:25:05;25.80;99.90
22966;DHT22;11649;48.090;9.754;2023-08-20T09:27:39;26.10;99.90
22966;DHT22;11649;48.090;9.754;2023-08-20T09:30:07;26.60;99.90
22966;DHT22;11649;48.090;9.754;2023-08-20T09:32:34;27.00;99.90
22966;DHT22;11649;48.090;9.754;2023-08-20T09:35:00;27.20;99.40
22966;DHT22;11649;48.090;9.754;2023-08-20T09:37:27;27.40;97.80
22966;DHT22;11649;48.090;9.754;2023-08-20T09:39:54;27.60;97.40
22966;DHT22;11649;48.090;9.754;2023-08-20T09:42:21;27.60;95.00
22966;DHT22;11649;48.090;9.754;2023-08-20T09:44:48;27.50;93.50
22966;DHT22;11649;48.090;9.754;2023-08-20T09:47:18;27.40;96.60
22966;DHT22;11649;48.090;9.754;2023-08-20T09:49:48;27.40;93.30
22966;DHT22;11649;48.090;9.754;2023-08-20T09:52:25;27.40;93.30
22966;DHT22;11649;48.090;9.754;2023-08-20T09:55:13;27.40;97.30
22966;DHT22;11649;48.090;9.754;2023-08-20T09:57:42;27.40;98.00
22966;DHT22;11649;48.090;9.754;2023-08-20T10:00:12;27.40;92.20
22966;DHT22;11649;48.090;9.754;2023-08-20T10:02:41;27.40;83.70
22966;DHT22;11649;48.090;9.754;2023-08-20T10:05:10;27.50;84.80
22966;DHT22;11649;48.090;9.754;2023-08-20T10:07:38;27.70;86.70
22966;DHT22;11649;48.090;9.754;2023-08-20T10:10:06;27.80;85.20
22966;DHT22;11649;48.090;9.754;2023-08-20T10:12:35;27.80;86.80
22966;DHT22;11649;48.090;9.754;2023-08-20T10:15:03;27.90;90.20
22966;DHT22;11649;48.090;9.754;2023-08-20T10:17:32;27.90;90.90
22966;DHT22;11649;48.090;9.754;2023-08-20T10:20:02;27.80;89.30
22966;DHT22;11649;48.090;9.754;2023-08-20T10:22:38;27.70;82.30
22966;DHT22;11649;48.090;9.754;2023-08-20T10:25:22;27.60;81.50
22966;DHT22;11649;48.090;9.754;2023-08-20T10:27:49;27.60;80.20
22966;DHT22;11649;48.090;9.754;2023-08-20T10:30:24;27.60;79.20
22966;DHT22;11649;48.090;9.754;2023-08-20T10:32:58;27.70;78.90
22966;DHT22;11649;48.090;9.754;2023-08-20T10:35:47;27.70;79.20
22966;DHT22;11649;48.090;9.754;2023-08-20T10:38:16;27.70;80.40
22966;DHT22;11649;48.090;9.754;2023-08-20T10:40:54;27.70;81.60
22966;DHT22;11649;48.090;9.754;2023-08-20T10:46:06;27.80;82.30
22966;DHT22;11649;48.090;9.754;2023-08-20T10:48:38;27.90;85.60
22966;DHT22;11649;48.090;9.754;2023-08-20T10:51:12;28.00;80.50
22966;DHT22;11649;48.090;9.754;2023-08-20T10:53:41;28.10;78.40
22966;DHT22;11649;48.090;9.754;2023-08-20T10:56:15;28.20;78.80
22966;DHT22;11649;48.090;9.754;2023-08-20T10:58:45;28.10;79.00
22966;DHT22;11649;48.090;9.754;2023-08-20T11:01:22;28.10;81.20
22966;DHT22;11649;48.090;9.754;2023-08-20T11:03:50;28.30;86.50
22966;DHT22;11649;48.090;9.754;2023-08-20T11:06:18;28.30;90.50
22966;DHT22;11649;48.090;9.754;2023-08-20T11:08:45;28.50;91.50
22966;DHT22;11649;48.090;9.754;2023-08-20T11:11:12;28.70;94.50
22966;DHT22;11649;48.090;9.754;2023-08-20T11:13:39;28.80;93.10
22966;DHT22;11649;48.090;9.754;2023-08-20T11:16:06;28.90;90.80
22966;DHT22;11649;48.090;9.754;2023-08-20T11:18:34;28.90;91.40
22966;DHT22;11649;48.090;9.754;2023-08-20T11:21:02;29.00;82.00
22966;DHT22;11649;48.090;9.754;2023-08-20T11:23:29;29.00;85.10
22966;DHT22;11649;48.090;9.754;2023-08-20T11:25:57;29.10;86.30
22966;DHT22;11649;48.090;9.754;2023-08-20T11:28:25;29.10;80.20
22966;DHT22;11649;48.090;9.754;2023-08-20T11:30:53;29.10;82.10
22966;DHT22;11649;48.090;9.754;2023-08-20T11:33:20;29.20;83.00
22966;DHT22;11649;48.090;9.754;2023-08-20T11:35:48;29.20;90.60
22966;DHT22;11649;48.090;9.754;2023-08-20T11:38:19;29.30;87.80
22966;DHT22;11649;48.090;9.754;2023-08-20T11:40:46;29.30;90.20
22966;DHT22;11649;48.090;9.754;2023-08-20T11:43:13;29.40;92.20
22966;DHT22;11649;48.090;9.754;2023-08-20T11:45:47;29.50;91.90
22966;DHT22;11649;48.090;9.754;2023-08-20T11:48:16;29.40;79.70
22966;DHT22;11649;48.090;9.754;2023-08-20T11:50:45;29.40;82.60
22966;DHT22;11649;48.090;9.754;2023-08-20T11:53:12;29.40;82.40
22966;DHT22;11649;48.090;9.754;2023-08-20T11:55:40;29.50;81.20
22966;DHT22;11649;48.090;9.754;2023-08-20T11:58:14;29.60;78.90
22966;DHT22;11649;48.090;9.754;2023-08-20T12:00:41;29.70;74.70
22966;DHT22;11649;48.090;9.754;2023-08-20T12:03:08;29.60;74.60
22966;DHT22;11649;48.090;9.754;2023-08-20T12:05:36;29.60;76.10
22966;DHT22;11649;48.090;9.754;2023-08-20T12:08:04;29.70;73.90
22966;DHT22;11649;48.090;9.754;2023-08-20T12:10:33;29.80;72.80
22966;DHT22;11649;48.090;9.754;2023-08-20T12:13:01;29.80;76.80
22966;DHT22;11649;48.090;9.754;2023-08-20T12:15:29;29.80;76.10
22966;DHT22;11649;48.090;9.754;2023-08-20T12:17:57;29.80;78.90
22966;DHT22;11649;48.090;9.754;2023-08-20T12:20:27;29.90;72.70
22966;DHT22;11649;48.090;9.754;2023-08-20T12:22:54;29.90;76.50
22966;DHT22;11649;48.090;9.754;2023-08-20T12:25:21;30.00;86.50
22966;DHT22;11649;48.090;9.754;2023-08-20T12:27:48;30.00;81.10
22966;DHT22;11649;48.090;9.754;2023-08-20T12:30:15;30.00;77.90
22966;DHT22;11649;48.090;9.754;2023-08-20T12:32:42;30.20;76.20
22966;DHT22;11649;48.090;9.754;2023-08-20T12:35:08;30.30;73.30
22966;DHT22;11649;48.090;9.754;2023-08-20T12:37:35;30.20;77.00
22966;DHT22;11649;48.090;9.754;2023-08-20T12:40:04;30.10;72.60
22966;DHT22;11649;48.090;9.754;2023-08-20T12:42:38;30.00;71.30
22966;DHT22;11649;48.090;9.754;2023-08-20T12:45:08;30.00;74.40
22966;DHT22;11649;48.090;9.754;2023-08-20T12:47:36;30.20;80.00
22966;DHT22;11649;48.090;9.754;2023-08-20T12:50:04;30.30;76.70
22966;DHT22;11649;48.090;9.754;2023-08-20T12:52:32;30.40;76.70
22966;DHT22;11649;48.090;9.754;2023-08-20T12:54:59;30.30;71.90
22966;DHT22;11649;48.090;9.754;2023-08-20T12:57:26;30.30;77.00
22966;DHT22;11649;48.090;9.754;2023-08-20T12:59:53;30.40;74.20
22966;DHT22;11649;48.090;9.754;2023-08-20T13:02:20;30.50;77.30
22966;DHT22;11649;48.090;9.754;2023-08-20T13:04:47;30.60;72.90
22966;DHT22;11649;48.090;9.754;2023-08-20T13:07:15;30.60;74.80
22966;DHT22;11649;48.090;9.754;2023-08-20T13:09:42;30.70;75.70
22966;DHT22;11649;48.090;9.754;2023-08-20T13:12:10;30.50;73.50
22966;DHT22;11649;48.090;9.754;2023-08-20T13:14:42;30.60;72.80
22966;DHT22;11649;48.090;9.754;2023-08-20T13:17:09;30.70;74.80
22966;DHT22;11649;48.090;9.754;2023-08-20T13:19:36;30.90;72.70
22966;DHT22;11649;48.090;9.754;2023-08-20T13:22:06;30.90;76.40
22966;DHT22;11649;48.090;9.754;2023-08-20T13:24:33;30.80;70.90
22966;DHT22;11649;48.090;9.754;2023-08-20T13:27:00;30.70;72.70
22966;DHT22;11649;48.090;9.754;2023-08-20T13:29:27;30.80;78.50
22966;DHT22;11649;48.090;9.754;2023-08-20T13:31:54;31.10;76.70
22966;DHT22;11649;48.090;9.754;2023-08-20T13:34:21;31.50;76.60
22966;DHT22;11649;48.090;9.754;2023-08-20T13:36:48;31.80;71.90
22966;DHT22;11649;48.090;9.754;2023-08-20T13:39:15;32.10;59.80
22966;DHT22;11649;48.090;9.754;2023-08-20T13:41:42;32.60;63.30
22966;DHT22;11649;48.090;9.754;2023-08-20T13:44:08;33.40;67.50
22966;DHT22;11649;48.090;9.754;2023-08-20T13:46:36;35.10;59.80
22966;DHT22;11649;48.090;9.754;2023-08-20T13:49:03;36.40;54.50
22966;DHT22;11649;48.090;9.754;2023-08-20T13:51:30;36.60;47.80
22966;DHT22;11649;48.090;9.754;2023-08-20T13:53:57;36.90;48.50
22966;DHT22;11649;48.090;9.754;2023-08-20T13:56:25;38.60;42.20
22966;DHT22;11649;48.090;9.754;2023-08-20T13:58:53;39.20;40.90
22966;DHT22;11649;48.090;9.754;2023-08-20T14:01:19;39.50;39.30
22966;DHT22;11649;48.090;9.754;2023-08-20T14:03:46;39.60;38.90
22966;DHT22;11649;48.090;9.754;2023-08-20T14:06:13;41.00;38.90
22966;DHT22;11649;48.090;9.754;2023-08-20T14:08:40;41.60;35.10
22966;DHT22;11649;48.090;9.754;2023-08-20T14:11:07;42.70;36.40
22966;DHT22;11649;48.090;9.754;2023-08-20T14:13:34;42.60;35.80
22966;DHT22;11649;48.090;9.754;2023-08-20T14:16:00;41.80;37.60
22966;DHT22;11649;48.090;9.754;2023-08-20T14:18:27;41.30;37.10
22966;DHT22;11649;48.090;9.754;2023-08-20T14:20:55;40.50;36.60
22966;DHT22;11649;48.090;9.754;2023-08-20T14:23:21;41.60;36.60
22966;DHT22;11649;48.090;9.754;2023-08-20T14:25:48;42.00;36.50
22966;DHT22;11649;48.090;9.754;2023-08-20T14:28:15;41.90;35.10
22966;DHT22;11649;48.090;9.754;2023-08-20T14:30:42;42.20;32.60
22966;DHT22;11649;48.090;9.754;2023-08-20T14:33:08;41.90;31.70
22966;DHT22;11649;48.090;9.754;2023-08-20T14:35:35;41.40;32.80
22966;DHT22;11649;48.090;9.754;2023-08-20T14:38:02;41.70;32.30
22966;DHT22;11649;48.090;9.754;2023-08-20T14:40:30;41.80;32.20
22966;DHT22;11649;48.090;9.754;2023-08-20T14:42:58;42.30;31.00
22966;DHT22;11649;48.090;9.754;2023-08-20T14:45:25;42.20;31.60
22966;DHT22;11649;48.090;9.754;2023-08-20T14:47:52;43.10;32.20
22966;DHT22;11649;48.090;9.754;2023-08-20T14:50:19;43.80;32.10
22966;DHT22;11649;48.090;9.754;2023-08-20T14:52:45;44.20;30.70
22966;DHT22;11649;48.090;9.754;2023-08-20T14:55:18;44.30;30.00
22966;DHT22;11649;48.090;9.754;2023-08-20T14:57:45;43.30;36.20
22966;DHT22;11649;48.090;9.754;2023-08-20T15:00:18;43.20;34.80
22966;DHT22;11649;48.090;9.754;2023-08-20T15:02:45;41.80;30.70
22966;DHT22;11649;48.090;9.754;2023-08-20T15:05:12;41.60;31.50
22966;DHT22;11649;48.090;9.754;2023-08-20T15:07:39;41.40;36.40
22966;DHT22;11649;48.090;9.754;2023-08-20T15:10:07;40.60;37.80
22966;DHT22;11649;48.090;9.754;2023-08-20T15:12:35;39.40;39.70
22966;DHT22;11649;48.090;9.754;2023-08-20T15:15:03;38.30;41.00
22966;DHT22;11649;48.090;9.754;2023-08-20T15:17:31;38.30;37.70
22966;DHT22;11649;48.090;9.754;2023-08-20T15:20:01;38.30;36.60
22966;DHT22;11649;48.090;9.754;2023-08-20T15:22:32;38.70;35.10
22966;DHT22;11649;48.090;9.754;2023-08-20T15:24:59;39.60;39.50
22966;DHT22;11649;48.090;9.754;2023-08-20T15:27:27;40.00;36.40
22966;DHT22;11649;48.090;9.754;2023-08-20T15:29:55;40.30;38.50
22966;DHT22;11649;48.090;9.754;2023-08-20T15:32:21;40.10;37.20
22966;DHT22;11649;48.090;9.754;2023-08-20T15:34:48;40.20;36.00
22966;DHT22;11649;48.090;9.754;2023-08-20T15:37:16;40.20;35.20
22966;DHT22;11649;48.090;9.754;2023-08-20T15:39:43;40.00;36.40
22966;DHT22;11649;48.090;9.754;2023-08-20T15:42:10;39.50;38.00
22966;DHT22;11649;48.090;9.754;2023-08-20T15:44:39;38.80;40.70
22966;DHT22;11649;48.090;9.754;2023-08-20T15:47:07;38.20;39.70
22966;DHT22;11649;48.090;9.754;2023-08-20T15:49:34;38.00;39.40
22966;DHT22;11649;48.090;9.754;2023-08-20T15:52:01;38.40;37.20
22966;DHT22;11649;48.090;9.754;2023-08-20T15:54:29;38.50;37.70
22966;DHT22;11649;48.090;9.754;2023-08-20T15:56:56;38.50;38.90
22966;DHT22;11649;48.090;9.754;2023-08-20T15:59:29;38.80;40.50
22966;DHT22;11649;48.090;9.754;2023-08-20T16:02:33;38.20;41.40
22966;DHT22;11649;48.090;9.754;2023-08-20T16:05:06;37.00;40.90